Time;durP1;ratioP1;P1;durP2;ratioP2;P2;SDS_P1;SDS_P2;PMS_P1;PMS_P2;Temp;Humidity;BMP_temperature;BMP_pressure;BME280_temperature;BME280_humidity;BME280_pressure;Samples;Min_cycle;Max_cycle;Signal;HPM_P1;HPM_P2
2023/11/03 00:01:37;;;;;;;0.70;0.70;;;13.70;75.40;;;;;;5033705;28;20042;-74
2023/11/03 00:04:08;;;;;;;0.75;0.70;;;13.70;75.40;;;;;;5036374;28;20387;-74
2023/11/03 00:06:43;;;;;;;0.80;0.80;;;13.60;75.40;;;;;;5034530;28;20048;-74
2023/11/03 00:09:14;;;;;;;0.90;0.90;;;13.60;75.50;;;;;;5042448;28;20021;-74
2023/11/03 00:11:42;;;;;;;0.75;0.75;;;13.60;75.40;;;;;;5041092;28;20509;-74
2023/11/03 00:14:07;;;;;;;0.80;0.80;;;13.60;75.40;;;;;;5034284;28;20075;-74
2023/11/03 00:16:33;;;;;;;0.80;0.80;;;13.60;75.40;;;;;;5031684;28;20128;-74
2023/11/03 00:19:00;;;;;;;0.70;0.70;;;13.50;75.40;;;;;;5038073;28;20026;-74
2023/11/03 00:21:35;;;;;;;0.73;0.70;;;13.60;75.60;;;;;;5032362;28;20053;-74
2023/11/03 00:24:01;;;;;;;1.08;0.98;;;13.50;75.50;;;;;;5029019;28;20033;-74
2023/11/03 00:26:27;;;;;;;1.58;1.00;;;13.50;75.50;;;;;;5030524;28;20040;-74
2023/11/03 00:28:53;;;;;;;0.88;0.88;;;13.50;75.60;;;;;;5038251;28;20067;-74
2023/11/03 00:31:19;;;;;;;0.90;0.88;;;13.50;75.60;;;;;;5017539;28;20124;-73
2023/11/03 00:33:45;;;;;;;0.80;0.80;;;13.50;75.60;;;;;;5008694;28;20115;-74
2023/11/03 00:36:16;;;;;;;0.88;0.88;;;13.40;75.60;;;;;;5036307;28;20033;-74
2023/11/03 00:38:48;;;;;;;0.82;0.82;;;13.40;75.60;;;;;;5027245;28;20036;-74
2023/11/03 00:41:14;;;;;;;1.20;0.88;;;13.40;75.60;;;;;;5033569;28;20037;-74
2023/11/03 00:43:42;;;;;;;0.90;0.90;;;13.40;75.60;;;;;;5017357;28;20021;-74
2023/11/03 00:46:08;;;;;;;0.80;0.80;;;13.40;75.60;;;;;;5001630;28;20983;-74
2023/11/03 00:48:34;;;;;;;0.80;0.80;;;13.40;75.60;;;;;;5035174;28;20045;-74
2023/11/03 00:51:00;;;;;;;1.00;0.90;;;13.30;75.60;;;;;;5030683;28;20061;-74
2023/11/03 00:53:26;;;;;;;1.10;0.90;;;13.30;75.60;;;;;;5032690;28;20087;-74
2023/11/03 00:55:52;;;;;;;0.80;0.80;;;13.30;75.60;;;;;;5030976;28;20033;-74
2023/11/03 00:58:19;;;;;;;1.98;0.88;;;13.30;75.60;;;;;;5033705;28;20114;-74
2023/11/03 01:00:44;;;;;;;1.20;0.88;;;13.30;75.70;;;;;;5029146;28;20540;-74
2023/11/03 01:03:10;;;;;;;1.02;0.90;;;13.30;75.70;;;;;;5020600;28;20045;-74
2023/11/03 01:05:36;;;;;;;0.90;0.90;;;13.30;75.70;;;;;;5035029;28;20029;-74
2023/11/03 01:08:03;;;;;;;0.82;0.82;;;13.30;75.70;;;;;;5041579;28;20033;-74
2023/11/03 01:10:29;;;;;;;1.48;0.80;;;13.20;75.60;;;;;;5031141;28;20038;-74
2023/11/03 01:12:56;;;;;;;0.80;0.80;;;13.20;75.70;;;;;;5044455;28;20371;-74
2023/11/03 01:15:23;;;;;;;0.90;0.90;;;13.20;75.70;;;;;;5005647;28;20098;-74
2023/11/03 01:17:50;;;;;;;0.80;0.80;;;13.20;75.60;;;;;;5034842;28;20040;-74
2023/11/03 01:20:19;;;;;;;0.80;0.80;;;13.20;75.70;;;;;;5042873;28;21200;-74
2023/11/03 01:22:48;;;;;;;0.77;0.77;;;13.20;75.70;;;;;;5033024;28;20026;-75
2023/11/03 01:25:17;;;;;;;0.82;0.80;;;13.20;75.70;;;;;;5038470;28;20032;-74
2023/11/03 01:27:44;;;;;;;0.80;0.80;;;13.20;75.80;;;;;;5031282;28;20111;-74
2023/11/03 01:30:12;;;;;;;0.70;0.70;;;13.10;75.70;;;;;;5034921;28;20528;-75
2023/11/03 01:32:38;;;;;;;0.80;0.80;;;13.20;75.80;;;;;;5033320;28;20029;-74
2023/11/03 01:35:06;;;;;;;0.80;0.80;;;13.20;75.80;;;;;;5025209;28;20048;-74
2023/11/03 01:37:33;;;;;;;0.80;0.80;;;13.10;75.70;;;;;;5020270;28;20044;-74
2023/11/03 01:39:59;;;;;;;0.70;0.70;;;13.10;75.80;;;;;;5036057;28;20045;-74
2023/11/03 01:42:25;;;;;;;1.13;0.90;;;13.10;75.80;;;;;;5017217;28;20026;-74
2023/11/03 01:44:51;;;;;;;0.90;0.90;;;13.10;75.80;;;;;;5032595;28;20033;-74
2023/11/03 01:47:17;;;;;;;1.48;0.95;;;13.10;75.80;;;;;;5046998;28;20041;-74
2023/11/03 01:49:44;;;;;;;0.93;0.80;;;13.10;75.80;;;;;;5013778;28;20040;-75
2023/11/03 01:52:11;;;;;;;0.98;0.80;;;13.00;75.80;;;;;;5024527;28;20443;-74
2023/11/03 01:54:38;;;;;;;1.00;0.80;;;13.10;75.80;;;;;;5019508;28;20060;-74
2023/11/03 01:57:04;;;;;;;0.73;0.73;;;13.10;75.80;;;;;;5020921;28;20435;-74
2023/11/03 01:59:30;;;;;;;0.80;0.80;;;13.00;75.80;;;;;;5024873;28;20029;-74
2023/11/03 02:01:58;;;;;;;0.80;0.80;;;13.00;75.80;;;;;;5047731;28;20597;-75
2023/11/03 02:04:24;;;;;;;1.02;0.90;;;13.00;75.80;;;;;;5036461;28;20108;-74
2023/11/03 02:06:50;;;;;;;0.80;0.80;;;13.00;75.80;;;;;;5037414;28;20119;-75
2023/11/03 02:09:16;;;;;;;1.45;0.90;;;13.00;75.80;;;;;;5039453;28;20464;-73
2023/11/03 02:11:43;;;;;;;1.20;1.00;;;13.00;75.80;;;;;;5019748;28;20037;-74
2023/11/03 02:14:10;;;;;;;0.85;0.80;;;13.00;75.80;;;;;;5036457;28;20597;-74
2023/11/03 02:16:37;;;;;;;0.75;0.75;;;13.00;75.90;;;;;;5031512;28;20041;-74
2023/11/03 02:19:03;;;;;;;1.05;0.90;;;13.00;75.90;;;;;;5049013;28;20547;-74
2023/11/03 02:21:35;;;;;;;0.80;0.80;;;13.00;75.90;;;;;;5034746;28;20049;-75
2023/11/03 02:24:01;;;;;;;0.80;0.80;;;13.00;75.90;;;;;;5013449;28;20463;-76
2023/11/03 02:26:27;;;;;;;0.85;0.85;;;13.00;75.90;;;;;;5015574;28;20053;-74
2023/11/03 02:28:52;;;;;;;0.80;0.80;;;12.90;75.80;;;;;;5016461;28;20056;-74
2023/11/03 02:31:18;;;;;;;0.80;0.80;;;12.90;75.80;;;;;;5026153;28;20022;-74
2023/11/03 02:33:44;;;;;;;0.90;0.90;;;13.00;75.90;;;;;;5031565;28;20037;-74
2023/11/03 02:36:10;;;;;;;0.75;0.75;;;12.90;75.80;;;;;;5027665;28;20475;-74
2023/11/03 02:38:35;;;;;;;0.93;0.93;;;12.90;75.80;;;;;;5030445;28;20036;-74
2023/11/03 02:41:02;;;;;;;0.73;0.73;;;12.90;75.80;;;;;;5027340;28;20471;-75
2023/11/03 02:43:28;;;;;;;1.40;0.95;;;12.90;75.80;;;;;;5029857;28;20037;-74
2023/11/03 02:45:54;;;;;;;0.80;0.80;;;12.90;75.90;;;;;;5031469;28;20030;-75
2023/11/03 02:48:20;;;;;;;0.80;0.80;;;12.90;75.90;;;;;;5033689;28;20057;-74
2023/11/03 02:50:46;;;;;;;0.90;0.90;;;12.90;75.90;;;;;;5041201;28;20516;-74
2023/11/03 02:53:11;;;;;;;0.98;0.90;;;12.90;75.90;;;;;;4999723;28;20055;-74
2023/11/03 02:55:37;;;;;;;0.70;0.70;;;12.90;75.90;;;;;;5017121;28;20488;-74
2023/11/03 02:58:03;;;;;;;0.80;0.80;;;12.90;75.90;;;;;;5005601;28;20041;-74
2023/11/03 03:00:29;;;;;;;0.70;0.70;;;12.90;75.90;;;;;;5014062;28;20040;-74
2023/11/03 03:02:55;;;;;;;0.95;0.93;;;12.90;75.90;;;;;;4995314;28;20040;-75
2023/11/03 03:05:21;;;;;;;0.70;0.70;;;12.80;75.90;;;;;;5019808;28;20076;-74
2023/11/03 03:07:47;;;;;;;0.90;0.80;;;12.90;75.90;;;;;;5014350;28;20482;-74
2023/11/03 03:10:12;;;;;;;1.00;0.90;;;12.80;75.80;;;;;;5029866;28;20040;-74
2023/11/03 03:12:38;;;;;;;1.00;0.90;;;12.80;75.80;;;;;;5035401;28;20043;-75
2023/11/03 03:15:05;;;;;;;0.82;0.82;;;12.80;75.90;;;;;;5026237;28;20021;-74
2023/11/03 03:17:30;;;;;;;1.17;1.10;;;12.80;75.90;;;;;;5047279;28;20063;-74
2023/11/03 03:19:56;;;;;;;1.27;1.17;;;12.80;75.90;;;;;;5031581;28;20049;-76
2023/11/03 03:22:22;;;;;;;1.48;0.90;;;12.80;75.90;;;;;;5013217;28;20842;-74
2023/11/03 03:24:48;;;;;;;1.27;0.93;;;12.80;75.90;;;;;;5024171;28;20067;-74
2023/11/03 03:27:14;;;;;;;0.82;0.80;;;12.80;75.80;;;;;;5032374;28;20033;-74
2023/11/03 03:29:39;;;;;;;1.77;0.90;;;12.80;75.90;;;;;;5016351;28;20048;-74
2023/11/03 03:32:05;;;;;;;0.90;0.90;;;12.80;76.50;;;;;;5000473;28;20483;-74
2023/11/03 03:34:31;;;;;;;0.80;0.80;;;12.80;75.90;;;;;;5012852;28;20038;-74
2023/11/03 03:36:57;;;;;;;1.42;0.90;;;12.80;75.90;;;;;;5034719;28;20033;-74
2023/11/03 03:39:22;;;;;;;0.80;0.80;;;12.80;75.90;;;;;;5018279;28;20030;-74
2023/11/03 03:41:51;;;;;;;1.48;0.88;;;12.80;75.90;;;;;;5030072;28;20037;-74
2023/11/03 03:44:17;;;;;;;1.20;1.00;;;12.80;75.90;;;;;;5012274;28;20025;-74
2023/11/03 03:46:43;;;;;;;1.75;1.10;;;12.80;75.90;;;;;;5013455;28;20385;-73
2023/11/03 03:49:08;;;;;;;1.10;1.00;;;12.80;75.90;;;;;;5018665;28;20124;-74
2023/11/03 03:51:34;;;;;;;1.27;1.10;;;12.80;75.90;;;;;;5015909;28;20037;-74
2023/11/03 03:54:00;;;;;;;0.93;0.93;;;12.70;75.90;;;;;;5037323;28;20040;-74
2023/11/03 03:56:26;;;;;;;1.77;1.17;;;12.80;75.90;;;;;;5005420;28;20040;-74
2023/11/03 03:58:53;;;;;;;1.20;0.82;;;12.70;75.80;;;;;;5031127;28;20061;-74
2023/11/03 04:01:20;;;;;;;1.67;0.90;;;12.80;75.90;;;;;;5036934;28;20029;-75
2023/11/03 04:03:46;;;;;;;0.88;0.88;;;12.80;75.90;;;;;;5031723;28;20046;-74
2023/11/03 04:06:12;;;;;;;1.27;0.90;;;12.80;75.90;;;;;;5029621;28;20033;-74
2023/11/03 04:08:37;;;;;;;0.90;0.90;;;12.80;75.90;;;;;;5036616;28;20419;-74
2023/11/03 04:11:04;;;;;;;1.58;1.20;;;12.80;75.90;;;;;;4995927;28;20033;-74
2023/11/03 04:13:29;;;;;;;1.33;1.20;;;12.80;75.90;;;;;;5048804;28;20095;-74
2023/11/03 04:15:55;;;;;;;1.20;1.00;;;12.80;75.90;;;;;;5031120;28;20061;-74
2023/11/03 04:18:21;;;;;;;0.88;0.88;;;12.80;75.90;;;;;;5038014;28;20037;-74
2023/11/03 04:20:47;;;;;;;1.05;0.95;;;12.70;75.80;;;;;;5034038;28;20060;-74
2023/11/03 04:23:13;;;;;;;1.00;0.93;;;12.80;75.90;;;;;;5029089;28;20109;-75
2023/11/03 04:25:40;;;;;;;1.00;0.90;;;12.70;75.80;;;;;;5040983;28;20108;-74
2023/11/03 04:28:09;;;;;;;1.02;0.93;;;12.80;75.90;;;;;;5039888;28;20033;-74
2023/11/03 04:30:36;;;;;;;1.13;1.00;;;12.80;75.90;;;;;;5037592;28;20045;-74
2023/11/03 04:33:02;;;;;;;1.83;1.10;;;12.70;75.90;;;;;;5029715;28;20033;-74
2023/11/03 04:35:29;;;;;;;1.25;1.08;;;12.70;75.90;;;;;;5033593;28;20053;-74
2023/11/03 04:37:54;;;;;;;1.13;1.00;;;12.80;75.90;;;;;;5031938;28;20161;-75
2023/11/03 04:40:21;;;;;;;1.00;0.90;;;12.70;75.90;;;;;;5059883;28;20418;-74
2023/11/03 04:42:50;;;;;;;1.10;1.00;;;12.80;75.90;;;;;;5032014;28;20034;-74
2023/11/03 04:45:16;;;;;;;1.10;0.90;;;12.80;75.90;;;;;;5035279;28;20117;-74
2023/11/03 04:47:42;;;;;;;1.30;1.05;;;12.80;75.90;;;;;;5022553;28;20038;-74
2023/11/03 04:50:10;;;;;;;1.33;1.15;;;12.70;75.90;;;;;;5036310;28;20029;-74
2023/11/03 04:52:39;;;;;;;2.33;1.33;;;12.70;75.90;;;;;;5033249;28;20041;-74
2023/11/03 04:55:09;;;;;;;0.90;0.90;;;12.80;76.00;;;;;;5035861;28;20080;-74
2023/11/03 04:57:38;;;;;;;0.80;0.80;;;12.70;76.50;;;;;;5051370;28;20040;-74
2023/11/03 05:00:10;;;;;;;1.10;0.93;;;12.70;75.90;;;;;;5031423;28;20037;-74
2023/11/03 05:02:36;;;;;;;1.25;1.02;;;12.80;76.00;;;;;;5037796;28;20032;-75
2023/11/03 05:05:06;;;;;;;0.90;0.90;;;12.70;75.90;;;;;;5042868;28;20034;-74
2023/11/03 05:07:33;;;;;;;0.90;0.90;;;12.70;75.90;;;;;;5025647;28;20034;-75
2023/11/03 05:09:59;;;;;;;0.98;0.98;;;12.70;75.90;;;;;;5024516;28;20033;-74
2023/11/03 05:12:25;;;;;;;1.73;1.13;;;12.70;75.90;;;;;;5008335;28;20592;-74
2023/11/03 05:14:51;;;;;;;0.90;0.85;;;12.70;75.90;;;;;;5036240;28;20036;-74
2023/11/03 05:17:17;;;;;;;1.45;1.02;;;12.70;75.90;;;;;;5039117;28;20041;-74
2023/11/03 05:19:42;;;;;;;1.20;1.00;;;12.70;76.00;;;;;;5030221;28;21051;-75
2023/11/03 05:22:09;;;;;;;1.20;1.00;;;12.70;76.00;;;;;;5013469;28;20025;-74
2023/11/03 05:24:35;;;;;;;2.00;1.27;;;12.70;76.00;;;;;;5029248;28;20029;-76
2023/11/03 05:27:01;;;;;;;1.98;1.27;;;12.70;76.00;;;;;;5014207;28;20095;-74
2023/11/03 05:29:27;;;;;;;2.35;1.20;;;12.70;76.00;;;;;;5013502;28;20065;-74
2023/11/03 05:31:53;;;;;;;1.00;0.90;;;12.70;76.00;;;;;;5028390;28;20091;-74
2023/11/03 05:34:19;;;;;;;1.10;1.00;;;12.70;76.00;;;;;;5030133;28;20186;-74
2023/11/03 05:36:45;;;;;;;1.15;1.02;;;12.70;76.00;;;;;;5026812;28;20132;-75
2023/11/03 05:39:14;;;;;;;1.10;1.00;;;12.70;76.00;;;;;;5030386;28;20030;-73
2023/11/03 05:41:42;;;;;;;1.55;1.05;;;12.70;76.00;;;;;;5031322;28;20116;-74
2023/11/03 05:44:08;;;;;;;1.20;1.02;;;12.70;76.00;;;;;;5034056;28;20034;-74
2023/11/03 05:46:34;;;;;;;1.13;1.05;;;12.70;76.00;;;;;;5035482;28;20481;-74
2023/11/03 05:48:59;;;;;;;1.73;1.23;;;12.70;76.00;;;;;;5037634;28;20061;-74
2023/11/03 05:51:26;;;;;;;1.20;1.10;;;12.70;76.00;;;;;;5031211;28;20029;-74
2023/11/03 05:53:52;;;;;;;2.25;1.15;;;12.70;76.00;;;;;;5039098;28;20021;-74
2023/11/03 05:56:17;;;;;;;2.28;1.33;;;12.70;76.00;;;;;;5038186;28;20059;-75
2023/11/03 05:58:43;;;;;;;1.77;1.17;;;12.70;76.00;;;;;;5037929;28;20057;-74
2023/11/03 06:01:09;;;;;;;1.30;1.10;;;12.70;76.00;;;;;;5034136;28;20060;-74
2023/11/03 06:03:35;;;;;;;2.47;1.17;;;12.70;76.00;;;;;;5019861;28;20029;-74
2023/11/03 06:06:02;;;;;;;1.08;0.98;;;12.70;76.10;;;;;;5030690;28;20059;-73
2023/11/03 06:08:28;;;;;;;1.77;1.17;;;12.70;76.00;;;;;;5035665;28;20041;-75
2023/11/03 06:10:54;;;;;;;1.00;1.00;;;12.70;76.10;;;;;;5015078;28;20540;-74
2023/11/03 06:13:20;;;;;;;2.05;1.55;;;12.60;76.00;;;;;;5036329;28;20037;-74
2023/11/03 06:15:46;;;;;;;1.00;1.00;;;12.70;76.10;;;;;;5029561;28;20108;-75
2023/11/03 06:18:12;;;;;;;1.25;1.02;;;12.60;76.10;;;;;;5010795;28;20475;-74
2023/11/03 06:20:38;;;;;;;2.60;1.10;;;12.60;76.00;;;;;;5025604;28;20057;-74
2023/11/03 06:23:04;;;;;;;1.27;1.13;;;12.60;76.10;;;;;;5027615;28;20040;-74
2023/11/03 06:25:29;;;;;;;2.53;1.13;;;12.60;76.00;;;;;;5011069;28;20481;-74
2023/11/03 06:27:55;;;;;;;2.03;1.23;;;12.60;76.10;;;;;;5012929;28;20496;-74
2023/11/03 06:30:22;;;;;;;1.80;1.20;;;12.60;76.10;;;;;;5026496;28;20025;-74
2023/11/03 06:32:47;;;;;;;1.33;1.00;;;12.60;76.00;;;;;;5044607;28;20120;-75
2023/11/03 06:35:14;;;;;;;1.20;1.10;;;12.60;76.10;;;;;;5027108;28;20128;-74
2023/11/03 06:37:40;;;;;;;2.25;1.40;;;12.60;76.10;;;;;;5030050;28;20037;-74
2023/11/03 06:40:10;;;;;;;1.80;1.38;;;12.60;76.10;;;;;;5026686;28;20558;-74
2023/11/03 06:42:38;;;;;;;1.98;1.15;;;12.60;76.10;;;;;;5028304;28;20033;-75
2023/11/03 06:45:09;;;;;;;1.98;1.20;;;12.60;76.10;;;;;;5027325;28;20017;-74
2023/11/03 06:47:35;;;;;;;1.45;1.20;;;12.60;76.10;;;;;;5013568;28;20072;-75
2023/11/03 06:50:01;;;;;;;1.52;1.13;;;12.60;76.10;;;;;;5045012;28;20037;-74
2023/11/03 06:52:26;;;;;;;2.67;1.27;;;12.60;76.10;;;;;;5012597;28;20079;-73
2023/11/03 06:54:52;;;;;;;2.72;1.48;;;12.60;76.10;;;;;;5029029;28;20033;-74
2023/11/03 06:57:18;;;;;;;3.50;1.50;;;12.60;76.10;;;;;;5025953;28;20037;-74
2023/11/03 06:59:46;;;;;;;2.97;1.40;;;12.60;76.10;;;;;;5040536;28;20065;-74
2023/11/03 07:02:12;;;;;;;1.33;1.00;;;12.60;76.20;;;;;;5027189;28;20095;-74
2023/11/03 07:04:38;;;;;;;1.08;0.95;;;12.60;76.20;;;;;;5028589;28;20037;-74
2023/11/03 07:07:04;;;;;;;1.85;1.00;;;12.60;76.20;;;;;;5031222;28;20033;-74
2023/11/03 07:09:31;;;;;;;1.52;1.20;;;12.60;76.20;;;;;;4993503;28;20025;-75
2023/11/03 07:11:57;;;;;;;1.10;0.90;;;12.60;76.20;;;;;;5012962;28;20667;-74
2023/11/03 07:14:24;;;;;;;2.45;1.15;;;12.60;76.20;;;;;;5014271;28;20501;-74
2023/11/03 07:16:53;;;;;;;1.15;1.05;;;12.60;76.20;;;;;;5013126;28;20037;-74
2023/11/03 07:19:20;;;;;;;1.45;0.95;;;12.60;76.20;;;;;;5009040;28;20442;-75
2023/11/03 07:21:53;;;;;;;1.75;1.10;;;12.60;76.20;;;;;;5026827;28;20057;-74
2023/11/03 07:24:21;;;;;;;1.25;1.15;;;12.60;76.20;;;;;;5027414;28;20033;-75
2023/11/03 07:26:50;;;;;;;1.20;1.00;;;12.50;76.20;;;;;;5026241;28;20041;-75
2023/11/03 07:29:19;;;;;;;1.60;1.15;;;12.60;76.20;;;;;;5008834;28;20029;-74
2023/11/03 07:31:45;;;;;;;1.88;1.15;;;12.60;76.20;;;;;;5011640;28;20053;-74
2023/11/03 07:34:11;;;;;;;3.22;1.40;;;12.60;76.20;;;;;;5028894;28;20021;-74
2023/11/03 07:36:37;;;;;;;1.83;1.10;;;12.60;76.20;;;;;;5009123;28;20513;-74
2023/11/03 07:39:06;;;;;;;2.65;1.23;;;12.60;76.30;;;;;;5029043;28;20060;-75
2023/11/03 07:41:36;;;;;;;2.40;1.17;;;12.60;76.30;;;;;;5024679;28;20021;-74
2023/11/03 07:44:03;;;;;;;1.98;1.25;;;12.60;76.90;;;;;;5031854;28;20034;-74
2023/11/03 07:46:31;;;;;;;1.02;1.00;;;12.50;76.20;;;;;;5026717;28;20036;-74
2023/11/03 07:48:57;;;;;;;2.05;1.20;;;12.50;76.20;;;;;;5030254;28;20041;-75
2023/11/03 07:51:25;;;;;;;1.33;1.23;;;12.60;76.30;;;;;;5026905;28;20056;-74
2023/11/03 07:53:51;;;;;;;2.13;1.20;;;12.50;76.30;;;;;;5027267;28;20493;-76
2023/11/03 07:56:17;;;;;;;2.03;1.17;;;12.50;76.30;;;;;;5027698;28;20040;-75
2023/11/03 07:58:45;;;;;;;1.92;1.20;;;12.60;76.30;;;;;;5025647;28;20254;-73
2023/11/03 08:01:11;;;;;;;1.92;1.33;;;12.50;76.20;;;;;;5014774;28;20053;-73
2023/11/03 08:03:37;;;;;;;1.05;0.93;;;12.60;76.30;;;;;;5026555;28;20103;-73
2023/11/03 08:06:04;;;;;;;2.10;1.10;;;12.50;76.30;;;;;;5007180;28;20460;-73
2023/11/03 08:08:30;;;;;;;1.38;1.05;;;12.60;76.30;;;;;;5030279;28;20121;-75
2023/11/03 08:10:56;;;;;;;2.17;1.17;;;12.60;76.30;;;;;;5031289;28;20108;-73
2023/11/03 08:13:24;;;;;;;1.70;1.02;;;12.60;76.30;;;;;;5032180;28;20037;-73
2023/11/03 08:15:51;;;;;;;2.03;1.20;;;12.60;76.30;;;;;;5030222;28;20037;-75
2023/11/03 08:18:17;;;;;;;2.38;1.20;;;12.60;76.40;;;;;;5030983;28;20029;-73
2023/11/03 08:20:42;;;;;;;4.05;1.55;;;12.60;76.30;;;;;;5036042;28;20554;-73
2023/11/03 08:23:11;;;;;;;2.83;1.10;;;12.50;76.30;;;;;;5042397;28;20121;-74
2023/11/03 08:25:37;;;;;;;2.00;1.30;;;12.50;76.30;;;;;;5035863;28;20036;-75
2023/11/03 08:28:03;;;;;;;1.92;1.10;;;12.50;76.30;;;;;;5039505;28;20030;-74
2023/11/03 08:30:29;;;;;;;1.95;1.10;;;12.60;76.30;;;;;;5046985;28;20029;-74
2023/11/03 08:32:55;;;;;;;1.20;1.10;;;12.50;76.30;;;;;;4997178;28;20041;-74
2023/11/03 08:35:22;;;;;;;1.42;1.23;;;12.60;76.40;;;;;;5043746;28;20481;-74
2023/11/03 08:37:52;;;;;;;2.28;1.27;;;12.60;76.30;;;;;;5019018;28;20029;-74
2023/11/03 08:40:22;;;;;;;3.72;1.17;;;12.60;76.30;;;;;;5036093;28;20052;-74
2023/11/03 08:42:48;;;;;;;0.93;0.90;;;12.60;76.30;;;;;;5034431;28;20053;-74
2023/11/03 08:45:14;;;;;;;1.00;0.90;;;12.60;76.30;;;;;;5039615;28;20030;-74
2023/11/03 08:47:43;;;;;;;2.15;1.33;;;12.60;76.30;;;;;;5020036;28;20032;-75
2023/11/03 08:50:14;;;;;;;1.05;0.90;;;12.60;76.30;;;;;;5029919;28;20029;-74
2023/11/03 08:52:40;;;;;;;3.03;1.13;;;12.60;76.30;;;;;;5029629;28;20037;-74
2023/11/03 08:55:07;;;;;;;1.95;1.02;;;12.60;76.30;;;;;;5027950;28;20041;-73
2023/11/03 08:57:34;;;;;;;1.30;1.05;;;12.60;76.30;;;;;;5027183;28;20037;-76
2023/11/03 09:00:08;;;;;;;2.45;1.30;;;12.70;76.40;;;;;;5027935;28;20544;-75
2023/11/03 09:02:52;;;;;;;2.47;1.30;;;12.70;76.40;;;;;;5023503;28;20049;-75
2023/11/03 09:05:18;;;;;;;1.67;0.95;;;12.70;76.30;;;;;;5024036;28;20124;-74
2023/11/03 09:07:45;;;;;;;2.20;1.10;;;12.70;76.30;;;;;;5011539;28;20128;-74
2023/11/03 09:10:11;;;;;;;2.13;1.50;;;12.70;76.30;;;;;;5000771;28;20028;-74
2023/11/03 09:12:40;;;;;;;2.33;1.30;;;12.80;76.30;;;;;;5035249;28;20033;-75
2023/11/03 09:15:10;;;;;;;2.92;1.23;;;12.80;76.40;;;;;;5029887;28;20116;-74
2023/11/03 09:17:36;;;;;;;3.40;1.55;;;12.80;76.40;;;;;;5031069;28;20042;-75
2023/11/03 09:20:06;;;;;;;4.47;1.60;;;12.80;76.30;;;;;;5029192;28;20032;-74
2023/11/03 09:22:32;;;;;;;1.95;1.15;;;12.90;76.40;;;;;;5013237;28;20042;-75
2023/11/03 09:25:00;;;;;;;2.08;1.20;;;12.90;76.40;;;;;;5028317;28;20405;-74
2023/11/03 09:27:27;;;;;;;2.63;1.10;;;12.90;77.00;;;;;;5028921;28;20490;-73
2023/11/03 09:29:52;;;;;;;2.08;1.17;;;12.90;76.30;;;;;;5034353;28;20029;-73
2023/11/03 09:32:19;;;;;;;1.90;1.30;;;12.90;76.40;;;;;;5040545;28;20033;-75
2023/11/03 09:34:48;;;;;;;2.65;1.50;;;12.90;76.30;;;;;;5017774;28;20042;-74
2023/11/03 09:37:15;;;;;;;3.13;1.23;;;13.00;76.40;;;;;;5029640;28;20043;-75
2023/11/03 09:39:42;;;;;;;2.80;1.50;;;13.00;76.40;;;;;;5036893;28;20040;-74
2023/11/03 09:42:10;;;;;;;1.92;1.10;;;13.00;76.30;;;;;;5035694;28;20032;-73
2023/11/03 09:44:37;;;;;;;2.70;1.38;;;13.00;76.30;;;;;;5040246;28;20111;-73
2023/11/03 09:47:08;;;;;;;3.00;1.20;;;13.00;76.90;;;;;;5031321;28;21406;-73
2023/11/03 09:49:35;;;;;;;1.77;1.20;;;13.10;76.30;;;;;;5032491;28;20087;-73
2023/11/03 09:52:03;;;;;;;3.22;1.30;;;13.10;76.30;;;;;;5033111;28;20021;-73
2023/11/03 09:54:32;;;;;;;2.13;1.10;;;13.10;76.30;;;;;;5039693;28;20028;-74
2023/11/03 09:57:00;;;;;;;2.83;1.25;;;13.10;76.30;;;;;;5039177;28;20034;-73
2023/11/03 09:59:26;;;;;;;2.30;1.30;;;13.10;76.30;;;;;;5006513;28;20033;-74
2023/11/03 10:01:53;;;;;;;2.20;1.33;;;13.10;76.90;;;;;;5036858;28;20112;-74
2023/11/03 10:04:20;;;;;;;2.72;1.27;;;13.20;76.30;;;;;;5036761;28;20448;-73
2023/11/03 10:06:47;;;;;;;3.25;1.40;;;13.20;76.30;;;;;;5026176;28;20505;-74
2023/11/03 10:09:16;;;;;;;3.22;1.40;;;13.20;76.30;;;;;;5041537;28;20029;-73
2023/11/03 10:11:42;;;;;;;2.03;1.20;;;13.30;76.40;;;;;;5035884;28;20113;-74
2023/11/03 10:14:07;;;;;;;2.95;1.30;;;13.30;76.30;;;;;;5034514;28;20033;-74
2023/11/03 10:16:33;;;;;;;2.75;1.20;;;13.30;76.30;;;;;;5024252;28;20028;-74
2023/11/03 10:18:59;;;;;;;3.83;1.67;;;13.30;76.30;;;;;;5030890;28;20462;-73
2023/11/03 10:21:25;;;;;;;2.10;1.10;;;13.30;76.30;;;;;;5036290;28;20053;-74
2023/11/03 10:23:54;;;;;;;2.33;1.25;;;13.30;76.20;;;;;;5037252;28;20048;-73
2023/11/03 10:26:20;;;;;;;1.88;1.13;;;13.40;76.30;;;;;;5029194;28;20033;-73
2023/11/03 10:28:46;;;;;;;2.00;1.25;;;13.40;76.30;;;;;;5040931;28;20102;-74
2023/11/03 10:31:12;;;;;;;2.47;1.25;;;13.40;76.20;;;;;;5038997;28;20144;-74
2023/11/03 10:33:38;;;;;;;3.55;1.40;;;13.40;76.20;;;;;;5023383;28;20036;-73
2023/11/03 10:36:08;;;;;;;2.22;1.13;;;13.50;76.20;;;;;;5034189;28;20036;-73
2023/11/03 10:38:36;;;;;;;3.25;1.20;;;13.50;76.20;;;;;;5031538;28;20402;-73
2023/11/03 10:41:07;;;;;;;2.25;1.13;;;13.50;76.20;;;;;;5013630;28;20175;-73
2023/11/03 10:43:45;;;;;;;3.00;1.27;;;13.50;76.10;;;;;;5034661;28;20029;-74
2023/11/03 10:46:18;;;;;;;2.20;1.30;;;13.50;76.10;;;;;;5032541;28;20029;-72
2023/11/03 10:49:03;;;;;;;1.98;1.20;;;13.50;76.10;;;;;;5033430;28;20059;-75
2023/11/03 10:51:51;;;;;;;2.88;1.48;;;13.50;76.10;;;;;;5032599;28;20032;-75
2023/11/03 10:54:30;;;;;;;2.65;1.20;;;13.60;76.10;;;;;;5060459;28;20469;-73
2023/11/03 10:56:57;;;;;;;2.60;1.30;;;13.60;76.00;;;;;;5066727;28;20094;-75
2023/11/03 10:59:24;;;;;;;2.83;1.20;;;13.60;76.00;;;;;;5050785;28;20037;-75
2023/11/03 11:01:52;;;;;;;2.08;1.20;;;13.60;76.00;;;;;;5067993;28;20070;-73
2023/11/03 11:04:26;;;;;;;1.73;1.30;;;13.60;76.00;;;;;;5073518;28;20034;-73
2023/11/03 11:07:05;;;;;;;1.98;1.20;;;13.70;76.00;;;;;;5069229;28;20018;-74
2023/11/03 11:09:45;;;;;;;2.42;1.10;;;13.60;76.00;;;;;;5073891;28;20432;-73
2023/11/03 11:12:13;;;;;;;1.75;1.23;;;13.70;76.00;;;;;;5059296;28;20474;-73
2023/11/03 11:14:41;;;;;;;2.60;1.35;;;13.70;75.90;;;;;;5066989;28;20033;-74
2023/11/03 11:17:15;;;;;;;2.53;1.10;;;13.70;75.90;;;;;;5050378;28;20029;-73
2023/11/03 11:19:42;;;;;;;;;;;13.70;75.90;;;;;;5075717;28;20557;-74
2023/11/03 11:22:11;;;;;;;1.48;1.10;;;13.70;75.80;;;;;;5067468;28;19943;-73
2023/11/03 11:24:40;;;;;;;2.40;1.23;;;13.70;75.70;;;;;;5058544;28;20420;-73
2023/11/03 11:27:17;;;;;;;1.75;1.30;;;13.70;75.80;;;;;;5064630;28;20124;-73
2023/11/03 11:29:43;;;;;;;2.08;1.27;;;13.80;75.80;;;;;;5070604;28;20438;-73
2023/11/03 11:32:11;;;;;;;2.78;1.40;;;13.80;75.80;;;;;;5071114;28;20075;-73
2023/11/03 11:34:40;;;;;;;2.63;1.40;;;13.80;75.80;;;;;;5056221;28;20033;-74
2023/11/03 11:37:29;;;;;;;2.20;1.60;;;13.80;75.80;;;;;;5067591;28;20032;-75
2023/11/03 11:40:03;;;;;;;2.20;1.42;;;13.80;75.80;;;;;;5065813;28;20108;-73
2023/11/03 11:42:42;;;;;;;1.73;1.25;;;13.80;75.70;;;;;;5073642;28;20384;-73
2023/11/03 11:45:12;;;;;;;2.45;1.38;;;13.90;75.80;;;;;;5070689;28;20899;-74
2023/11/03 11:47:44;;;;;;;3.47;1.60;;;13.90;75.70;;;;;;5075539;28;20028;-74
2023/11/03 11:50:11;;;;;;;2.47;1.35;;;13.90;75.70;;;;;;5057243;28;20061;-73
2023/11/03 11:52:39;;;;;;;1.23;1.10;;;13.90;75.70;;;;;;5074988;28;20053;-73
2023/11/03 11:55:07;;;;;;;2.70;1.60;;;13.90;75.70;;;;;;5058318;28;20545;-73
2023/11/03 11:57:36;;;;;;;1.92;1.23;;;14.00;75.70;;;;;;5076479;28;20082;-73
2023/11/03 12:00:04;;;;;;;3.00;1.15;;;13.90;75.60;;;;;;5069350;28;20065;-74
2023/11/03 12:02:36;;;;;;;3.58;1.30;;;14.00;75.70;;;;;;5073274;28;20075;-73
2023/11/03 12:05:04;;;;;;;1.70;1.10;;;14.00;75.60;;;;;;5064325;28;20386;-73
2023/11/03 12:07:30;;;;;;;3.05;1.25;;;14.00;75.50;;;;;;5040823;28;20088;-73
2023/11/03 12:09:56;;;;;;;3.03;1.33;;;14.10;75.50;;;;;;5056829;28;20037;-74
2023/11/03 12:12:23;;;;;;;1.67;1.17;;;14.10;75.60;;;;;;5050502;28;20128;-73
2023/11/03 12:14:49;;;;;;;2.17;1.23;;;14.10;75.40;;;;;;5056199;28;20028;-74
2023/11/03 12:17:16;;;;;;;3.05;1.42;;;14.10;75.40;;;;;;5057507;28;20461;-73
2023/11/03 12:19:49;;;;;;;2.03;1.38;;;14.20;75.40;;;;;;5053822;28;20469;-73
2023/11/03 12:22:26;;;;;;;2.40;1.42;;;14.20;75.30;;;;;;5017805;28;20035;-73
2023/11/03 12:24:54;;;;;;;1.92;1.30;;;14.30;75.30;;;;;;5045205;28;20029;-73
2023/11/03 12:27:23;;;;;;;2.10;1.20;;;14.20;75.20;;;;;;5057569;28;20028;-74
2023/11/03 12:29:51;;;;;;;3.03;1.35;;;14.30;75.20;;;;;;5042737;28;20033;-73
2023/11/03 12:32:17;;;;;;;1.95;1.05;;;14.30;75.20;;;;;;5052452;28;20042;-73
2023/11/03 12:34:45;;;;;;;2.33;1.45;;;14.30;75.20;;;;;;5053412;28;20080;-73
2023/11/03 12:37:13;;;;;;;1.60;1.20;;;14.30;75.20;;;;;;5057219;28;20068;-73
2023/11/03 12:39:56;;;;;;;3.88;1.30;;;14.40;75.20;;;;;;5057913;28;20165;-73
2023/11/03 12:42:23;;;;;;;2.22;1.33;;;14.40;75.20;;;;;;5054352;28;20110;-73
2023/11/03 12:45:03;;;;;;;2.05;1.13;;;14.40;75.00;;;;;;5059170;28;20025;-74
2023/11/03 12:47:55;;;;;;;2.20;1.20;;;14.50;75.10;;;;;;5056615;28;20075;-73
2023/11/03 12:50:25;;;;;;;2.33;1.35;;;14.50;75.10;;;;;;5042354;28;20544;-74